Time;durP1;ratioP1;P1;durP2;ratioP2;P2;SDS_P1;SDS_P2;PMS_P1;PMS_P2;Temp;Humidity;BMP_temperature;BMP_pressure;BME280_temperature;BME280_humidity;BME280_pressure;Samples;Min_cycle;Max_cycle;Signal;HPM_P1;HPM_P2
2022/01/30 00:00:24;;;;;;;20.40;4.18;;;7.70;84.00;;;;;;4993468;28;20043;-86
2022/01/30 00:02:51;;;;;;;18.60;3.92;;;7.70;84.00;;;;;;4993370;28;20129;-86
2022/01/30 00:05:19;;;;;;;25.42;3.83;;;7.70;84.00;;;;;;4993830;28;20165;-86
2022/01/30 00:07:47;;;;;;;19.15;3.63;;;7.60;84.00;;;;;;4991538;28;20133;-87
2022/01/30 00:10:16;;;;;;;18.80;3.85;;;7.60;83.90;;;;;;4994145;28;20050;-86
2022/01/30 00:15:15;;;;;;;19.58;3.83;;;7.40;83.90;;;;;;4997118;28;20042;-87
2022/01/30 00:17:49;;;;;;;20.67;3.53;;;7.40;83.90;;;;;;4997384;28;20499;-87
2022/01/30 00:20:21;;;;;;;17.98;3.65;;;7.40;83.90;;;;;;4982888;28;20046;-87
2022/01/30 00:22:58;;;;;;;13.32;3.33;;;7.40;83.90;;;;;;4995620;28;20046;-87
2022/01/30 00:25:35;;;;;;;14.13;3.30;;;7.40;83.90;;;;;;4995124;28;20054;-87
2022/01/30 00:28:06;;;;;;;17.55;3.25;;;7.30;84.00;;;;;;4997420;28;20141;-87
2022/01/30 00:30:35;;;;;;;14.88;3.03;;;7.30;84.00;;;;;;4996015;28;20053;-87
2022/01/30 00:33:03;;;;;;;19.15;3.47;;;7.20;84.00;;;;;;4997666;28;20054;-87
2022/01/30 00:35:36;;;;;;;16.70;3.63;;;7.20;84.10;;;;;;4997457;28;20125;-86
2022/01/30 00:38:05;;;;;;;17.55;3.13;;;7.10;84.10;;;;;;4995905;28;20144;-87
2022/01/30 00:40:34;;;;;;;14.88;2.92;;;7.10;84.10;;;;;;4995141;28;20056;-86
2022/01/30 00:43:02;;;;;;;15.18;3.60;;;7.10;84.20;;;;;;4994716;28;20066;-86
2022/01/30 00:45:30;;;;;;;16.20;3.35;;;7.10;84.20;;;;;;4996166;28;20046;-87
2022/01/30 00:47:57;;;;;;;22.38;3.90;;;7.00;84.20;;;;;;4996361;28;20573;-86
2022/01/30 00:50:24;;;;;;;20.17;3.63;;;7.00;84.20;;;;;;4995046;28;20046;-86
2022/01/30 00:52:55;;;;;;;16.08;3.63;;;6.90;84.20;;;;;;4994788;28;20058;-86
2022/01/30 00:55:27;;;;;;;16.05;3.53;;;6.90;84.20;;;;;;4993828;28;20077;-86
2022/01/30 00:57:55;;;;;;;16.05;3.65;;;6.90;84.20;;;;;;4996336;28;20081;-87
2022/01/30 01:00:23;;;;;;;16.42;3.72;;;6.90;84.20;;;;;;4994751;28;20046;-86
2022/01/30 01:02:51;;;;;;;16.60;3.30;;;6.90;84.20;;;;;;4996165;28;20057;-87
2022/01/30 01:05:19;;;;;;;19.17;3.53;;;6.80;84.20;;;;;;4994775;28;20430;-86
2022/01/30 01:07:49;;;;;;;20.35;3.90;;;6.80;84.30;;;;;;4995381;28;20572;-87
2022/01/30 01:23:55;;;;;;;20.40;3.85;;;6.60;84.40;;;;;;4996444;28;20042;-87
2022/01/30 01:26:24;;;;;;;19.85;4.28;;;6.60;84.50;;;;;;4996163;28;20050;-86
2022/01/30 01:28:52;;;;;;;15.55;3.88;;;6.50;84.40;;;;;;4995772;28;20046;-86
2022/01/30 01:31:20;;;;;;;18.60;3.88;;;6.50;84.50;;;;;;4993940;28;20085;-86
2022/01/30 01:34:22;;;;;;;16.23;3.22;;;6.50;84.50;;;;;;4995074;28;20059;-86
2022/01/30 01:36:34;;;;;;;14.20;3.25;;;6.50;84.50;;;;;;4996011;28;20057;-86
2022/01/30 01:39:03;;;;;;;16.30;3.65;;;6.40;84.50;;;;;;4997487;28;20050;-86
2022/01/30 01:41:32;;;;;;;17.70;3.20;;;6.40;84.50;;;;;;4995821;28;20088;-86
2022/01/30 01:44:00;;;;;;;20.58;4.38;;;6.40;84.60;;;;;;4995791;28;20050;-86
2022/01/30 01:46:32;;;;;;;18.98;4.25;;;6.40;84.60;;;;;;4995221;28;20053;-86
2022/01/30 01:49:00;;;;;;;17.13;3.53;;;6.40;84.60;;;;;;4995033;28;20046;-87
2022/01/30 01:51:31;;;;;;;18.25;3.88;;;6.30;84.60;;;;;;4994680;28;20055;-86
2022/01/30 01:53:59;;;;;;;19.40;4.07;;;6.40;84.70;;;;;;4994606;28;20487;-86
2022/01/30 01:56:28;;;;;;;15.02;3.60;;;6.30;84.70;;;;;;4995884;28;20054;-87
2022/01/30 01:58:55;;;;;;;18.88;3.45;;;6.30;84.70;;;;;;4995571;28;20042;-86
2022/01/30 02:01:24;;;;;;;23.73;4.25;;;6.30;84.70;;;;;;4992941;28;20068;-87
2022/01/30 02:03:51;;;;;;;14.38;3.00;;;6.30;84.70;;;;;;4994516;28;20053;-86
2022/01/30 02:06:22;;;;;;;21.15;3.85;;;6.20;84.60;;;;;;4995591;28;20057;-86
2022/01/30 02:08:57;;;;;;;14.75;3.22;;;6.20;84.70;;;;;;4995355;28;20125;-87
2022/01/30 02:11:36;;;;;;;15.63;4.10;;;6.20;84.70;;;;;;4995448;28;20061;-86
2022/01/30 02:25:27;;;;;;;14.27;3.67;;;6.10;84.60;;;;;;4995135;28;20050;-86
2022/01/30 02:27:57;;;;;;;18.55;3.50;;;6.00;84.60;;;;;;4994953;28;20522;-86
2022/01/30 02:30:29;;;;;;;18.00;3.33;;;6.00;84.60;;;;;;4993870;28;20042;-87
2022/01/30 02:32:57;;;;;;;23.15;4.20;;;6.00;84.60;;;;;;4995067;28;20399;-87
2022/01/30 02:35:24;;;;;;;16.60;3.35;;;6.00;84.60;;;;;;4995071;28;20053;-88
2022/01/30 02:37:53;;;;;;;20.77;3.42;;;6.00;84.60;;;;;;4993942;28;20054;-89
2022/01/30 02:40:21;;;;;;;13.50;3.35;;;5.90;84.60;;;;;;4994241;28;20054;-88
2022/01/30 02:42:51;;;;;;;13.75;3.72;;;5.90;84.60;;;;;;4994556;28;20058;-87
2022/01/30 02:45:21;;;;;;;17.10;3.28;;;5.90;84.60;;;;;;4994931;28;20042;-88
2022/01/30 02:48:11;;;;;;;15.35;3.20;;;5.90;84.60;;;;;;4994817;28;20046;-87
2022/01/30 02:53:10;;;;;;;16.55;3.10;;;5.90;84.70;;;;;;4995909;28;20054;-87
2022/01/30 02:55:37;;;;;;;15.18;3.50;;;5.80;84.60;;;;;;4989792;28;20500;-87
2022/01/30 02:58:04;;;;;;;17.60;4.20;;;5.80;84.60;;;;;;4992951;28;20050;-87
2022/01/30 03:00:31;;;;;;;14.75;3.10;;;5.80;84.60;;;;;;4994527;28;20134;-87
2022/01/30 03:02:59;;;;;;;16.00;3.97;;;5.80;84.60;;;;;;4994637;28;20511;-87
2022/01/30 03:05:26;;;;;;;11.40;2.95;;;5.70;84.60;;;;;;4993394;28;20499;-87
2022/01/30 03:07:53;;;;;;;14.52;3.40;;;5.70;84.60;;;;;;4993051;28;20064;-86
2022/01/30 03:10:21;;;;;;;16.00;3.50;;;5.70;84.60;;;;;;4992370;28;20054;-86
2022/01/30 03:12:49;;;;;;;16.42;3.50;;;5.70;84.60;;;;;;4992772;28;20146;-87
2022/01/30 03:15:16;;;;;;;18.65;3.80;;;5.70;84.60;;;;;;4994318;28;20116;-87
2022/01/30 03:17:43;;;;;;;17.38;3.38;;;5.70;84.60;;;;;;4996708;28;20529;-87
2022/01/30 03:20:10;;;;;;;18.35;3.30;;;5.60;84.60;;;;;;4979002;28;20499;-86
2022/01/30 03:22:38;;;;;;;11.43;3.30;;;5.60;84.50;;;;;;4989619;28;20061;-88
2022/01/30 03:25:05;;;;;;;17.00;3.38;;;5.60;84.50;;;;;;4994196;28;20055;-87
2022/01/30 03:27:32;;;;;;;19.00;3.78;;;5.60;84.50;;;;;;4994905;28;20050;-88
2022/01/30 03:30:06;;;;;;;15.80;3.65;;;5.50;84.50;;;;;;4993269;28;20050;-87
2022/01/30 03:32:34;;;;;;;18.35;3.40;;;5.50;84.50;;;;;;4994095;28;20438;-87
2022/01/30 03:35:02;;;;;;;11.40;3.38;;;5.50;84.50;;;;;;4994202;28;20093;-87
2022/01/30 03:37:29;;;;;;;16.05;3.60;;;5.50;84.50;;;;;;4993346;28;20544;-87
2022/01/30 03:39:57;;;;;;;15.25;3.00;;;5.50;84.50;;;;;;4994570;28;20427;-86
2022/01/30 03:42:24;;;;;;;19.75;3.42;;;5.50;84.50;;;;;;4993933;28;20046;-86
2022/01/30 03:44:51;;;;;;;20.15;3.30;;;5.40;84.50;;;;;;4993860;28;20042;-86
2022/01/30 03:47:18;;;;;;;18.40;3.47;;;5.40;84.50;;;;;;4993828;28;20042;-87
2022/01/30 03:49:46;;;;;;;20.70;3.17;;;5.40;84.50;;;;;;4993034;28;20104;-86
2022/01/30 03:52:13;;;;;;;15.60;3.00;;;5.40;84.50;;;;;;4992707;28;20050;-86
2022/01/30 03:54:40;;;;;;;22.08;3.80;;;5.40;84.40;;;;;;4993843;28;20054;-87
2022/01/30 03:57:07;;;;;;;12.40;3.17;;;5.40;84.40;;;;;;4993750;28;20097;-86
2022/01/30 03:59:34;;;;;;;15.65;3.25;;;5.30;84.40;;;;;;4993707;28;20503;-85
2022/01/30 04:02:01;;;;;;;17.10;3.78;;;5.40;84.40;;;;;;4993861;28;20058;-88
2022/01/30 04:04:33;;;;;;;16.58;3.50;;;5.40;84.40;;;;;;4992841;28;20054;-88
2022/01/30 04:07:01;;;;;;;11.30;2.40;;;5.30;84.40;;;;;;4994880;28;20052;-89
2022/01/30 04:09:28;;;;;;;21.92;3.88;;;5.30;84.40;;;;;;4999450;28;20050;-87
2022/01/30 04:11:55;;;;;;;20.75;4.30;;;5.30;84.40;;;;;;4993633;28;20046;-88
2022/01/30 04:14:23;;;;;;;11.50;2.75;;;5.30;84.40;;;;;;4992428;28;20046;-86
2022/01/30 04:16:50;;;;;;;16.83;2.83;;;5.20;84.30;;;;;;4992749;28;20499;-86
2022/01/30 04:19:17;;;;;;;14.05;3.10;;;5.20;84.30;;;;;;4992054;28;20153;-87
2022/01/30 04:21:44;;;;;;;13.00;2.67;;;5.20;84.30;;;;;;4995491;28;20058;-86
2022/01/30 04:24:11;;;;;;;13.77;3.10;;;5.20;84.30;;;;;;4994772;28;20060;-86
2022/01/30 04:26:39;;;;;;;16.33;3.22;;;5.20;84.30;;;;;;4992585;28;20047;-87
2022/01/30 04:29:06;;;;;;;16.13;3.55;;;5.10;84.30;;;;;;4992342;28;20050;-87
2022/01/30 04:31:33;;;;;;;17.00;3.45;;;5.10;84.30;;;;;;4992547;28;20074;-87
2022/01/30 04:34:01;;;;;;;13.65;2.72;;;5.10;84.20;;;;;;4994605;28;20050;-87
2022/01/30 04:36:34;;;;;;;13.85;3.13;;;5.00;84.20;;;;;;4993363;28;20141;-86
2022/01/30 04:39:33;;;;;;;15.55;3.08;;;5.00;84.20;;;;;;4992980;28;20053;-87
2022/01/30 04:52:07;;;;;;;22.45;4.03;;;5.00;84.10;;;;;;4978759;28;20050;-86
2022/01/30 04:53:13;;;;;;;15.73;3.05;;;4.90;84.10;;;;;;4992916;28;20066;-86
2022/01/30 04:58:50;;;;;;;14.38;3.00;;;4.90;84.10;;;;;;4991052;28;20050;-87
2022/01/30 05:01:39;;;;;;;12.45;2.83;;;4.90;84.10;;;;;;4997247;28;20047;-87
2022/01/30 05:07:27;;;;;;;14.57;3.28;;;4.90;84.00;;;;;;4931918;29;20424;-86
2022/01/30 05:09:42;;;;;;;18.00;3.10;;;4.90;84.10;;;;;;4932284;29;20126;-87
2022/01/30 05:12:10;;;;;;;17.95;3.22;;;4.90;84.10;;;;;;4932340;29;20067;-87
2022/01/30 05:14:38;;;;;;;13.45;2.60;;;4.80;84.00;;;;;;4920835;29;20055;-88
2022/01/30 05:17:07;;;;;;;13.30;3.30;;;4.80;84.00;;;;;;4936573;29;20046;-87
2022/01/30 05:19:34;;;;;;;15.30;3.28;;;4.80;84.00;;;;;;4931532;29;20098;-87
2022/01/30 05:22:01;;;;;;;16.23;2.80;;;4.80;84.00;;;;;;4932105;29;20051;-87
2022/01/30 05:24:29;;;;;;;10.80;2.47;;;4.80;84.00;;;;;;4932191;29;20058;-88
2022/01/30 05:26:56;;;;;;;12.23;2.80;;;4.70;84.00;;;;;;4920672;29;20080;-88
2022/01/30 05:29:23;;;;;;;13.18;2.85;;;4.80;83.90;;;;;;4937469;29;20146;-87
2022/01/30 05:31:50;;;;;;;11.20;3.05;;;4.70;83.90;;;;;;4935709;29;20055;-87
2022/01/30 05:34:18;;;;;;;10.38;2.70;;;4.70;83.90;;;;;;4917040;29;20056;-87
2022/01/30 05:36:45;;;;;;;14.43;2.80;;;4.80;83.90;;;;;;4928662;29;20055;-87
2022/01/30 05:39:12;;;;;;;13.50;2.97;;;4.70;83.80;;;;;;4920620;29;20059;-89
2022/01/30 05:41:40;;;;;;;17.33;3.00;;;4.70;83.80;;;;;;4932620;29;20429;-89
2022/01/30 05:44:12;;;;;;;13.38;3.05;;;4.70;83.80;;;;;;4967999;28;20046;-88
2022/01/30 05:46:50;;;;;;;11.68;2.85;;;4.70;83.70;;;;;;4991531;28;20085;-88
2022/01/30 05:49:17;;;;;;;15.30;2.78;;;4.70;83.70;;;;;;4996705;28;20056;-88
2022/01/30 05:51:44;;;;;;;12.90;2.97;;;4.60;83.60;;;;;;4997518;28;20519;-88
2022/01/30 05:54:11;;;;;;;15.00;2.90;;;4.60;83.60;;;;;;4997803;28;20499;-87
2022/01/30 05:56:38;;;;;;;13.18;2.75;;;4.60;83.60;;;;;;4995976;28;20046;-88
2022/01/30 05:59:05;;;;;;;17.20;3.42;;;4.60;83.50;;;;;;4995966;28;20049;-88
2022/01/30 06:01:32;;;;;;;13.93;3.08;;;4.50;83.50;;;;;;4995154;28;20042;-87
2022/01/30 06:03:59;;;;;;;12.40;2.97;;;4.60;83.40;;;;;;4995787;28;20116;-88
2022/01/30 06:06:26;;;;;;;15.27;3.08;;;4.60;83.40;;;;;;4994182;28;20061;-88
2022/01/30 06:09:18;;;;;;;13.63;2.97;;;4.50;83.40;;;;;;4995435;28;20054;-87
2022/01/30 06:11:52;;;;;;;12.82;2.95;;;4.50;83.30;;;;;;4994277;28;20555;-87
2022/01/30 06:14:21;;;;;;;13.15;3.60;;;4.50;83.30;;;;;;4996060;28;20068;-88
2022/01/30 06:16:53;;;;;;;13.05;2.85;;;4.50;83.30;;;;;;4994602;28;20053;-88
2022/01/30 06:19:22;;;;;;;16.77;3.17;;;4.50;83.20;;;;;;4994531;28;20145;-87
2022/01/30 06:21:49;;;;;;;14.23;4.55;;;4.50;83.20;;;;;;4995465;28;20519;-89
2022/01/30 06:24:17;;;;;;;16.13;5.20;;;4.40;83.20;;;;;;4997671;28;20050;-89
2022/01/30 06:26:44;;;;;;;23.27;7.78;;;4.40;83.10;;;;;;4996903;28;20061;-88
2022/01/30 06:29:11;;;;;;;16.52;6.68;;;4.40;83.10;;;;;;4981289;28;20062;-88
2022/01/30 06:31:38;;;;;;;27.10;6.45;;;4.40;83.10;;;;;;4997530;28;20134;-88
2022/01/30 06:34:05;;;;;;;13.68;5.35;;;4.40;83.00;;;;;;4997133;28;20078;-89
2022/01/30 06:36:33;;;;;;;17.52;5.80;;;4.40;83.00;;;;;;4995893;28;20056;-89
2022/01/30 06:38:59;;;;;;;18.83;5.80;;;4.40;83.00;;;;;;4995409;28;20423;-89
2022/01/30 06:41:26;;;;;;;19.48;5.63;;;4.30;82.90;;;;;;4993731;28;20054;-89
2022/01/30 06:43:54;;;;;;;17.35;5.47;;;4.30;82.90;;;;;;4994857;28;20054;-91
2022/01/30 06:46:21;;;;;;;17.13;5.35;;;4.30;82.90;;;;;;4994272;28;20101;-90
2022/01/30 06:48:48;;;;;;;16.77;5.13;;;4.20;82.90;;;;;;4994204;28;20057;-91
2022/01/30 06:51:15;;;;;;;15.68;4.93;;;4.20;82.80;;;;;;4997473;28;20054;-90
2022/01/30 06:53:42;;;;;;;18.38;4.63;;;4.20;82.80;;;;;;4994026;28;20049;-90
2022/01/30 06:56:09;;;;;;;20.25;4.70;;;4.20;82.80;;;;;;4994005;28;20054;-89
2022/01/30 06:58:36;;;;;;;13.52;4.47;;;4.20;82.70;;;;;;4994249;28;20058;-89
2022/01/30 07:01:04;;;;;;;13.20;4.10;;;4.20;82.70;;;;;;4995441;28;20046;-89
2022/01/30 07:03:31;;;;;;;19.27;4.80;;;4.20;82.70;;;;;;4993925;28;20096;-90
2022/01/30 07:05:58;;;;;;;18.77;4.18;;;4.20;82.70;;;;;;4993382;28;20053;-90
2022/01/30 07:08:25;;;;;;;18.50;5.55;;;4.20;82.70;;;;;;4997351;28;20053;-89
2022/01/30 07:10:52;;;;;;;23.15;6.97;;;4.10;82.60;;;;;;5011973;28;20046;-89
2022/01/30 07:13:19;;;;;;;26.75;7.60;;;4.10;82.60;;;;;;4995838;28;20059;-89
2022/01/30 07:15:47;;;;;;;21.15;6.78;;;4.10;82.50;;;;;;4993664;28;20541;-88
2022/01/30 07:18:14;;;;;;;25.73;8.52;;;4.00;82.50;;;;;;4993726;28;20514;-90
2022/01/30 07:20:41;;;;;;;32.53;8.93;;;4.00;82.50;;;;;;5000209;28;20046;-88
2022/01/30 07:23:08;;;;;;;33.88;9.90;;;4.00;82.40;;;;;;4993867;28;20506;-89
2022/01/30 07:25:35;;;;;;;29.10;9.13;;;4.00;82.30;;;;;;4994173;28;20050;-89
2022/01/30 07:28:02;;;;;;;34.63;9.48;;;4.00;82.30;;;;;;4994136;28;20475;-88
2022/01/30 07:30:29;;;;;;;36.30;9.27;;;3.90;82.30;;;;;;4995002;28;20061;-88
2022/01/30 07:32:56;;;;;;;20.88;8.15;;;3.90;82.30;;;;;;4995842;28;20049;-89
2022/01/30 07:35:24;;;;;;;28.88;8.63;;;3.90;82.20;;;;;;4997067;28;20050;-89
2022/01/30 07:37:51;;;;;;;26.67;7.93;;;3.90;82.20;;;;;;4994203;28;20050;-90
2022/01/30 07:40:19;;;;;;;25.90;8.40;;;3.90;82.20;;;;;;4999483;28;20047;-88
2022/01/30 07:42:46;;;;;;;26.05;7.57;;;3.90;82.20;;;;;;4993659;28;20422;-88
2022/01/30 07:45:13;;;;;;;29.45;8.38;;;3.90;82.10;;;;;;4993830;28;20050;-89
2022/01/30 07:47:40;;;;;;;21.65;7.43;;;3.80;82.10;;;;;;4994430;28;20414;-88
2022/01/30 07:50:08;;;;;;;22.55;7.32;;;3.70;82.10;;;;;;4994323;28;20053;-88
2022/01/30 07:52:35;;;;;;;22.13;7.25;;;3.80;82.10;;;;;;4992547;28;20050;-89
2022/01/30 07:55:03;;;;;;;20.90;6.20;;;3.70;82.00;;;;;;4995873;28;20050;-89
2022/01/30 07:57:30;;;;;;;22.00;6.72;;;3.70;82.00;;;;;;4995154;28;20070;-88
2022/01/30 07:59:57;;;;;;;24.00;6.80;;;3.70;82.00;;;;;;4992105;28;20054;-91
2022/01/30 08:02:24;;;;;;;19.40;6.20;;;3.70;82.00;;;;;;4993174;28;20066;-91
2022/01/30 08:04:53;;;;;;;20.17;6.30;;;3.70;81.90;;;;;;4991945;28;20145;-90
2022/01/30 08:07:21;;;;;;;17.58;5.55;;;3.70;81.90;;;;;;4992408;28;20057;-90
2022/01/30 08:09:48;;;;;;;20.88;5.50;;;3.60;81.90;;;;;;4993488;28;20537;-88
2022/01/30 08:12:19;;;;;;;19.25;6.07;;;3.60;81.90;;;;;;5002337;28;20056;-88
2022/01/30 08:14:46;;;;;;;19.52;5.43;;;3.60;81.90;;;;;;5004709;28;20046;-88
2022/01/30 08:17:20;;;;;;;19.73;6.30;;;3.60;81.90;;;;;;4993263;28;20037;-89
2022/01/30 08:19:49;;;;;;;18.40;6.32;;;3.60;81.90;;;;;;4991756;28;20060;-88
2022/01/30 08:22:16;;;;;;;20.63;6.68;;;3.60;81.90;;;;;;4991265;28;20046;-88
2022/01/30 08:24:43;;;;;;;20.77;6.63;;;3.60;81.90;;;;;;4992220;28;20059;-88
2022/01/30 08:27:10;;;;;;;18.40;6.00;;;3.50;82.00;;;;;;4993551;28;20419;-88
2022/01/30 08:29:38;;;;;;;18.15;6.43;;;3.50;82.00;;;;;;4992097;28;20061;-89
2022/01/30 08:32:11;;;;;;;16.88;5.65;;;3.50;82.00;;;;;;4991989;28;20054;-88
2022/01/30 08:34:40;;;;;;;19.13;6.47;;;3.50;82.00;;;;;;4993587;28;20054;-89
2022/01/30 08:37:07;;;;;;;15.65;5.85;;;3.50;82.00;;;;;;4995049;28;20053;-91
2022/01/30 08:39:35;;;;;;;23.35;6.22;;;3.50;82.00;;;;;;4996229;28;20056;-89
2022/01/30 08:42:02;;;;;;;16.63;6.45;;;3.50;82.00;;;;;;4995507;28;20057;-89
2022/01/30 08:44:30;;;;;;;20.08;6.40;;;3.50;82.00;;;;;;4994940;28;20058;-89
2022/01/30 08:46:57;;;;;;;14.18;5.47;;;3.60;82.10;;;;;;4996453;28;20490;-90
2022/01/30 08:49:24;;;;;;;22.98;6.60;;;3.50;82.10;;;;;;5015358;28;20096;-90
2022/01/30 08:51:51;;;;;;;19.25;6.88;;;3.60;82.10;;;;;;4998062;28;20519;-90
2022/01/30 08:54:18;;;;;;;24.30;7.28;;;3.60;82.10;;;;;;5007100;28;20049;-88
2022/01/30 08:56:46;;;;;;;17.10;6.53;;;3.60;82.20;;;;;;5007947;28;20058;-91
2022/01/30 08:59:13;;;;;;;21.50;7.18;;;3.60;82.20;;;;;;4995759;28;20064;-89
2022/01/30 09:01:40;;;;;;;22.48;7.88;;;3.60;82.20;;;;;;4996494;28;20050;-88
2022/01/30 09:04:08;;;;;;;19.00;7.03;;;3.70;82.20;;;;;;4996887;28;20057;-88
2022/01/30 09:06:38;;;;;;;26.17;7.53;;;3.70;82.20;;;;;;4998162;28;20046;-89
2022/01/30 09:09:05;;;;;;;21.63;6.82;;;3.70;82.30;;;;;;4996145;28;20054;-90
2022/01/30 09:11:34;;;;;;;20.02;7.18;;;3.70;82.30;;;;;;4997929;28;20425;-89
2022/01/30 09:14:01;;;;;;;23.08;7.57;;;3.70;82.30;;;;;;4996297;28;20054;-91
2022/01/30 09:16:28;;;;;;;16.83;6.43;;;3.70;82.30;;;;;;4996045;28;20134;-90
2022/01/30 09:18:56;;;;;;;18.55;6.43;;;3.80;82.40;;;;;;4999754;28;20474;-89
2022/01/30 09:21:23;;;;;;;23.63;7.30;;;3.80;82.40;;;;;;4999346;28;20043;-89
2022/01/30 09:23:52;;;;;;;21.35;6.38;;;3.80;82.40;;;;;;4995917;28;20085;-89
2022/01/30 09:26:19;;;;;;;18.98;6.25;;;3.90;82.40;;;;;;4995950;28;20042;-90
2022/01/30 09:28:47;;;;;;;19.13;6.30;;;3.90;82.40;;;;;;4995104;28;20584;-89
2022/01/30 09:31:14;;;;;;;21.73;6.07;;;3.90;82.50;;;;;;4992556;28;20042;-90
2022/01/30 09:33:42;;;;;;;21.88;6.88;;;3.90;82.50;;;;;;4996360;28;20415;-89
2022/01/30 09:36:09;;;;;;;17.08;6.50;;;4.00;82.50;;;;;;4996208;28;20046;-89
2022/01/30 09:38:36;;;;;;;13.23;5.28;;;4.00;82.50;;;;;;4995096;28;20542;-88
2022/01/30 09:41:05;;;;;;;17.20;5.68;;;4.00;82.50;;;;;;4996250;28;20461;-87
2022/01/30 09:43:33;;;;;;;19.38;6.47;;;4.00;82.50;;;;;;4994054;28;20050;-87
2022/01/30 09:46:01;;;;;;;16.60;6.03;;;4.10;82.50;;;;;;4995829;28;20054;-87
2022/01/30 09:48:34;;;;;;;18.10;5.75;;;4.10;82.50;;;;;;4995822;28;20050;-87
2022/01/30 09:51:08;;;;;;;20.48;5.95;;;4.10;82.50;;;;;;4995857;28;20043;-87
2022/01/30 09:53:35;;;;;;;21.63;6.00;;;4.20;82.60;;;;;;4995921;28;20050;-87
2022/01/30 09:56:03;;;;;;;18.27;5.93;;;4.20;82.60;;;;;;4994761;28;20795;-86
2022/01/30 09:58:30;;;;;;;22.13;5.80;;;4.30;82.60;;;;;;4994582;28;20051;-87
2022/01/30 10:00:58;;;;;;;15.45;5.30;;;4.30;82.60;;;;;;4998062;28;20072;-86
2022/01/30 10:03:29;;;;;;;22.02;5.90;;;4.30;82.70;;;;;;4995714;28;20046;-87
2022/01/30 10:06:08;;;;;;;16.70;5.65;;;4.40;82.70;;;;;;4995751;28;20470;-87
2022/01/30 10:08:44;;;;;;;25.23;6.15;;;4.50;82.80;;;;;;4995474;28;20411;-86
2022/01/30 10:11:28;;;;;;;23.88;5.45;;;4.50;82.90;;;;;;4979008;28;20046;-86
2022/01/30 10:14:11;;;;;;;21.35;5.97;;;4.60;83.00;;;;;;4992800;28;20047;-87
2022/01/30 10:16:46;;;;;;;21.90;5.43;;;4.80;83.10;;;;;;4990635;28;20439;-86
2022/01/30 10:19:24;;;;;;;18.88;5.03;;;5.00;83.10;;;;;;4994336;28;20046;-86
2022/01/30 10:22:05;;;;;;;19.65;5.72;;;5.20;83.10;;;;;;4995307;28;20060;-85
2022/01/30 10:24:37;;;;;;;27.25;5.95;;;5.40;83.00;;;;;;4994326;28;20129;-86
2022/01/30 10:27:18;;;;;;;27.08;5.07;;;5.60;82.90;;;;;;4993293;28;20046;-85
2022/01/30 10:29:45;;;;;;;24.33;5.45;;;5.90;82.70;;;;;;4994706;28;20546;-85
2022/01/30 10:32:12;;;;;;;18.98;5.40;;;6.20;82.50;;;;;;4994557;28;20056;-86
2022/01/30 10:34:40;;;;;;;30.45;6.68;;;6.40;82.30;;;;;;4989848;28;20132;-85
2022/01/30 10:37:11;;;;;;;31.63;5.80;;;6.70;82.00;;;;;;4996018;28;20057;-86
2022/01/30 10:39:59;;;;;;;23.35;5.40;;;6.90;81.60;;;;;;4994252;28;20226;-85
2022/01/30 10:42:31;;;;;;;20.48;4.97;;;7.10;81.30;;;;;;4994272;28;20065;-86
2022/01/30 10:45:04;;;;;;;22.63;4.97;;;7.40;80.90;;;;;;4994377;28;20050;-86
2022/01/30 10:47:32;;;;;;;22.48;4.35;;;7.60;80.60;;;;;;4994531;28;20170;-87
2022/01/30 10:50:00;;;;;;;20.77;4.78;;;7.90;80.20;;;;;;4994820;28;20050;-87
2022/01/30 10:52:31;;;;;;;16.58;4.50;;;8.00;79.80;;;;;;4994104;28;20058;-86
2022/01/30 10:55:05;;;;;;;17.42;4.20;;;8.20;79.40;;;;;;4994333;28;20057;-87
2022/01/30 10:57:40;;;;;;;18.60;4.28;;;8.40;79.00;;;;;;4994123;28;20105;-87
2022/01/30 11:00:08;;;;;;;20.20;4.30;;;8.60;78.50;;;;;;4994453;28;20046;-86
2022/01/30 11:02:41;;;;;;;23.73;4.35;;;8.80;78.10;;;;;;4994647;28;20427;-86
2022/01/30 11:05:12;;;;;;;23.00;4.32;;;8.90;77.60;;;;;;4994912;28;20514;-87
2022/01/30 11:07:40;;;;;;;25.65;4.45;;;9.10;77.10;;;;;;4985136;28;20055;-87
2022/01/30 11:10:22;;;;;;;17.40;3.35;;;9.30;76.60;;;;;;4995325;28;20050;-86
2022/01/30 11:13:07;;;;;;;15.32;3.35;;;9.40;76.20;;;;;;4994317;28;20426;-86
2022/01/30 11:15:39;;;;;;;19.15;3.80;;;9.50;75.60;;;;;;4994325;28;20050;-86
2022/01/30 11:18:07;;;;;;;21.05;4.20;;;9.60;75.20;;;;;;4994438;28;20049;-87
2022/01/30 11:20:34;;;;;;;13.50;3.05;;;9.70;74.80;;;;;;4994597;28;20443;-86
2022/01/30 11:23:08;;;;;;;19.58;3.70;;;9.80;74.50;;;;;;4994709;28;20049;-87
2022/01/30 11:25:38;;;;;;;18.33;4.35;;;9.90;74.20;;;;;;4993569;28;20042;-86
2022/01/30 11:28:06;;;;;;;21.88;4.32;;;9.90;73.80;;;;;;4993090;28;20050;-86
2022/01/30 11:30:52;;;;;;;18.50;4.25;;;10.00;73.60;;;;;;4994102;28;20057;-87
2022/01/30 11:33:19;;;;;;;15.38;3.13;;;10.10;73.40;;;;;;4994117;28;20046;-85
2022/01/30 11:35:46;;;;;;;13.38;3.55;;;10.10;73.20;;;;;;4994240;28;20680;-86
2022/01/30 11:38:14;;;;;;;19.23;3.65;;;10.20;73.00;;;;;;4994104;28;20046;-86
2022/01/30 11:40:41;;;;;;;21.85;4.57;;;10.20;72.80;;;;;;4993176;28;20065;-86
2022/01/30 11:43:08;;;;;;;22.15;3.72;;;10.20;72.70;;;;;;4995574;28;20408;-86
2022/01/30 11:45:36;;;;;;;13.95;3.55;;;10.20;72.50;;;;;;4992863;28;20283;-86
2022/01/30 11:48:15;;;;;;;23.15;4.07;;;10.30;72.40;;;;;;4993982;28;20038;-85
2022/01/30 11:50:42;;;;;;;16.73;3.88;;;10.30;72.20;;;;;;4994209;28;20090;-87
2022/01/30 11:53:11;;;;;;;21.67;3.58;;;10.30;72.10;;;;;;4976938;28;20061;-86
2022/01/30 11:55:42;;;;;;;16.40;3.55;;;10.20;71.90;;;;;;4988993;28;20056;-87
2022/01/30 11:58:33;;;;;;;18.05;3.65;;;10.30;71.70;;;;;;4993638;28;20054;-87
2022/01/30 12:01:03;;;;;;;18.05;3.63;;;10.20;71.60;;;;;;4993703;28;20061;-86
2022/01/30 12:03:35;;;;;;;17.02;3.88;;;10.20;71.60;;;;;;4995012;28;20046;-86
2022/01/30 12:06:20;;;;;;;22.00;3.80;;;10.20;71.50;;;;;;4993680;28;20049;-86
2022/01/30 12:08:51;;;;;;;14.32;3.75;;;10.20;71.40;;;;;;4994134;28;20050;-87
2022/01/30 12:11:37;;;;;;;21.08;4.15;;;10.20;71.40;;;;;;4997861;28;20104;-86
2022/01/30 12:14:10;;;;;;;16.73;3.42;;;10.20;71.30;;;;;;4997796;28;20041;-86
2022/01/30 12:16:44;;;;;;;16.25;3.88;;;10.10;71.40;;;;;;4992906;28;20056;-86
2022/01/30 12:22:20;;;;;;;15.95;3.45;;;10.00;71.40;;;;;;4998228;28;20057;-86
2022/01/30 12:24:49;;;;;;;19.38;4.07;;;10.00;71.40;;;;;;4995954;28;20145;-86
2022/01/30 12:27:17;;;;;;;24.75;4.47;;;10.00;71.40;;;;;;4997993;28;20042;-88
2022/01/30 12:29:52;;;;;;;16.60;4.10;;;9.90;71.50;;;;;;4995322;28;20046;-87
2022/01/30 12:32:22;;;;;;;21.58;4.47;;;9.90;71.50;;;;;;4982802;28;20066;-86
2022/01/30 12:34:56;;;;;;;18.38;3.28;;;9.90;71.60;;;;;;4996349;28;20492;-87
2022/01/30 12:37:25;;;;;;;17.30;3.97;;;9.90;71.60;;;;;;4993717;28;20055;-86
2022/01/30 12:39:53;;;;;;;17.23;3.67;;;9.90;71.60;;;;;;4996892;28;20303;-87
2022/01/30 12:42:24;;;;;;;16.00;3.38;;;9.90;71.70;;;;;;4999039;28;20053;-87
2022/01/30 12:44:58;;;;;;;16.85;3.22;;;9.90;71.80;;;;;;4995783;28;20050;-86
2022/01/30 12:47:26;;;;;;;18.25;3.72;;;9.90;71.80;;;;;;4997235;28;20093;-86
2022/01/30 12:49:57;;;;;;;14.70;3.58;;;9.90;71.80;;;;;;4996797;28;20054;-88
2022/01/30 12:54:57;;;;;;;19.38;3.42;;;9.90;71.80;;;;;;4996987;28;20053;-87
2022/01/30 12:57:27;;;;;;;11.75;3.05;;;9.90;71.80;;;;;;4998605;28;20487;-87
2022/01/30 12:59:56;;;;;;;13.63;3.42;;;9.90;71.70;;;;;;4996970;28;20050;-87
2022/01/30 13:02:29;;;;;;;18.65;4.15;;;9.90;71.70;;;;;;4996331;28;20052;-87
2022/01/30 13:05:05;;;;;;;19.40;3.92;;;9.90;71.60;;;;;;4996940;28;20066;-87
2022/01/30 13:07:34;;;;;;;17.13;3.55;;;10.00;71.50;;;;;;4995509;28;20058;-87
2022/01/30 13:10:11;;;;;;;19.38;3.80;;;9.90;71.40;;;;;;4996840;28;20069;-86
2022/01/30 13:12:40;;;;;;;16.15;4.35;;;9.90;71.30;;;;;;4996724;28;20101;-88
2022/01/30 13:15:12;;;;;;;19.10;3.70;;;10.00;71.30;;;;;;4996501;28;20518;-87
2022/01/30 13:17:40;;;;;;;17.00;4.45;;;10.00;71.20;;;;;;4997038;28;20057;-90
2022/01/30 13:20:09;;;;;;;13.60;3.67;;;10.00;71.10;;;;;;4995357;28;20057;-88
2022/01/30 13:22:38;;;;;;;19.35;4.78;;;10.00;71.00;;;;;;4995791;28;20053;-88
2022/01/30 13:25:11;;;;;;;16.55;4.32;;;10.10;70.90;;;;;;4995517;28;20060;-88
2022/01/30 13:27:40;;;;;;;16.52;4.55;;;10.10;70.90;;;;;;4996497;28;20050;-88
2022/01/30 13:30:08;;;;;;;15.35;4.45;;;10.10;70.80;;;;;;4996953;28;20062;-86
2022/01/30 13:32:40;;;;;;;18.58;5.07;;;10.10;70.70;;;;;;4995281;28;20051;-87
2022/01/30 13:35:12;;;;;;;15.73;4.32;;;10.10;70.70;;;;;;4996512;28;20434;-88
2022/01/30 13:37:41;;;;;;;15.15;4.90;;;10.20;70.60;;;;;;4991584;28;20068;-88
2022/01/30 13:40:26;;;;;;;18.15;4.90;;;10.20;70.40;;;;;;4997771;28;20158;-88
2022/01/30 13:42:59;;;;;;;16.33;5.22;;;10.20;70.30;;;;;;4996125;28;20137;-89
2022/01/30 13:48:02;;;;;;;15.25;4.88;;;10.20;70.10;;;;;;4996023;28;20050;-89
2022/01/30 13:50:35;;;;;;;19.13;4.88;;;10.20;70.00;;;;;;4997511;28;20050;-89